Terminal Aerodrome Forecast
Issued by NWS

Home | Current Version | Previous Version | Text Only | Print | Product List | Glossary On
Versions: 1 2 3 4 5 6 7 8 9 10 11 12 13 14 15 16 17 18 19 20 21 22 23 24 25 26 27 28 29 30 31 32 33 34 35 36 37 38 39 40 41 42 43 44 45 46
452
FTUS41 KALY 261135
TAFPSF
TAF
KPSF 261135Z 2612/2712 08007KT P6SM OVC060
     FM261600 11008KT 6SM BR VCSH OVC050
      TEMPO 2616/2620 6SM -FZRA OVC050
     FM262000 12008KT P6SM VCSH OVC020
     FM270200 13007KT 6SM -SHRA BKN008
     FM270600 12008KT 6SM -RA OVC015
     FM271000 12005KT 6SM -RA OVC008 WS020/16030KT=

USA.gov is the U.S. government's official web portal to all federal, state and local government web resources and services.